createdAt,value
2023-02-11T00:02:21.509Z,92.78
2023-02-11T00:04:49.399Z,92.94
2023-02-11T00:07:17.244Z,93.40
2023-02-11T00:09:45.110Z,93.48
2023-02-11T00:12:12.934Z,93.82
2023-02-11T00:14:42.474Z,94.39
2023-02-11T00:17:11.756Z,94.01
2023-02-11T00:19:40.015Z,94.66
2023-02-11T00:22:08.010Z,94.66
2023-02-11T00:24:37.391Z,94.24
2023-02-11T00:27:05.246Z,94.56
2023-02-11T00:29:33.117Z,95.82
2023-02-11T00:32:05.183Z,94.87
2023-02-11T00:34:35.042Z,94.66
2023-02-11T00:37:03.173Z,94.46
2023-02-11T00:39:31.794Z,94.69
2023-02-11T00:41:59.720Z,94.19
2023-02-11T00:44:27.680Z,94.13
2023-02-11T00:46:55.601Z,94.00
2023-02-11T00:49:23.429Z,93.65
2023-02-11T00:51:52.630Z,93.79
2023-02-11T00:54:20.513Z,92.63
2023-02-11T00:56:48.388Z,92.55
2023-02-11T00:59:16.234Z,91.79
2023-02-11T01:01:44.151Z,91.86
2023-02-11T01:04:12.135Z,91.97
2023-02-11T01:06:40.024Z,91.52
2023-02-11T01:09:09.266Z,91.38
2023-02-11T01:11:37.158Z,91.20
2023-02-11T01:14:05.045Z,91.18
2023-02-11T01:16:32.962Z,91.17
2023-02-11T01:19:03.372Z,90.34
2023-02-11T01:21:31.256Z,90.20
2023-02-11T01:23:59.106Z,90.89
2023-02-11T01:26:28.378Z,90.60
2023-02-11T01:28:57.141Z,90.71
2023-02-11T01:31:25.035Z,90.99
2023-02-11T01:33:53.222Z,91.15
2023-02-11T01:36:21.106Z,91.54
2023-02-11T01:38:49.943Z,91.89
2023-02-11T01:41:17.982Z,92.75
2023-02-11T01:43:50.640Z,93.33
2023-02-11T01:46:34.999Z,93.83
2023-02-11T01:49:07.161Z,93.92
2023-02-11T01:51:39.817Z,94.50
2023-02-11T01:54:28.129Z,94.83
2023-02-11T01:57:16.592Z,95.97
2023-02-11T01:59:49.678Z,96.40
2023-02-11T02:02:21.147Z,96.84
2023-02-11T02:04:55.027Z,96.73
2023-02-11T02:07:33.854Z,97.91
2023-02-11T02:10:06.849Z,98.34
2023-02-11T02:12:34.763Z,98.19
2023-02-11T02:15:26.564Z,98.58
2023-02-11T02:18:02.554Z,99.26
2023-02-11T02:21:05.192Z,99.39
2023-02-11T02:23:54.238Z,99.91
2023-02-11T02:26:48.960Z,99.72
2023-02-11T02:29:52.893Z,100.00
2023-02-11T02:32:32.599Z,100.00
2023-02-11T02:35:10.674Z,100.00
2023-02-11T02:37:44.865Z,100.00
2023-02-11T02:40:18.105Z,100.00
2023-02-11T02:42:47.161Z,100.00
2023-02-11T02:45:15.645Z,100.00
2023-02-11T02:47:44.855Z,100.00
2023-02-11T02:50:16.112Z,100.00
2023-02-11T02:52:52.878Z,100.00
2023-02-11T02:55:40.416Z,100.00
2023-02-11T02:58:37.126Z,100.00
2023-02-11T03:01:13.527Z,100.00
2023-02-11T03:03:48.993Z,100.00
2023-02-11T03:06:25.791Z,100.00
2023-02-11T03:08:59.320Z,100.00
2023-02-11T03:11:29.198Z,100.00
2023-02-11T03:13:57.858Z,100.00
2023-02-11T03:16:29.360Z,100.00
2023-02-11T03:19:04.245Z,100.00
2023-02-11T03:21:34.894Z,100.00
2023-02-11T03:24:07.003Z,100.00
2023-02-11T03:26:39.634Z,100.00
2023-02-11T03:29:15.967Z,100.00
2023-02-11T03:31:53.892Z,100.00
2023-02-11T03:34:31.160Z,100.00
2023-02-11T03:37:04.314Z,100.00
2023-02-11T03:39:36.342Z,100.00
2023-02-11T03:42:07.090Z,100.00
2023-02-11T03:44:41.019Z,100.00
2023-02-11T03:47:11.879Z,100.00
2023-02-11T03:49:43.461Z,100.00
2023-02-11T03:52:13.936Z,100.00
2023-02-11T03:54:44.596Z,100.00
2023-02-11T03:57:12.685Z,100.00
2023-02-11T03:59:55.283Z,100.00
2023-02-11T04:02:24.756Z,100.00
2023-02-11T04:04:54.048Z,100.00
2023-02-11T04:07:21.990Z,100.00
2023-02-11T04:09:49.868Z,100.00
2023-02-11T04:12:17.834Z,100.00
2023-02-11T04:14:45.806Z,100.00
2023-02-11T04:17:14.320Z,100.00
2023-02-11T04:19:42.674Z,100.00
2023-02-11T04:22:12.067Z,100.00
2023-02-11T04:24:40.121Z,100.00
2023-02-11T04:27:07.959Z,100.00
2023-02-11T04:29:35.972Z,100.00
2023-02-11T04:32:03.888Z,100.00
2023-02-11T04:34:33.030Z,100.00
2023-02-11T04:37:00.891Z,100.00
2023-02-11T04:39:30.240Z,100.00
2023-02-11T04:41:58.104Z,100.00
2023-02-11T04:44:26.078Z,100.00
2023-02-11T04:46:54.488Z,100.00
2023-02-11T04:49:22.386Z,100.00
2023-02-11T04:51:50.385Z,100.00
2023-02-11T04:54:18.722Z,100.00
2023-02-11T04:56:48.117Z,100.00
2023-02-11T04:59:16.061Z,100.00
2023-02-11T05:01:44.299Z,100.00
2023-02-11T05:04:12.279Z,100.00
2023-02-11T05:06:40.641Z,100.00
2023-02-11T05:09:09.134Z,100.00
2023-02-11T05:11:39.401Z,100.00
2023-02-11T05:14:08.859Z,100.00
2023-02-11T05:16:37.068Z,100.00
2023-02-11T05:19:05.333Z,100.00
2023-02-11T05:21:33.498Z,100.00
2023-02-11T05:24:01.385Z,100.00
2023-02-11T05:26:29.503Z,100.00
2023-02-11T05:28:57.675Z,100.00
2023-02-11T05:31:26.891Z,100.00
2023-02-11T05:33:54.768Z,100.00
2023-02-11T05:36:22.667Z,100.00
2023-02-11T05:38:51.042Z,100.00
2023-02-11T05:41:18.928Z,100.00
2023-02-11T05:43:49.977Z,100.00
2023-02-11T05:46:18.643Z,100.00
2023-02-11T05:48:48.086Z,100.00
2023-02-11T05:51:16.061Z,100.00
2023-02-11T05:53:44.054Z,100.00
2023-02-11T05:56:12.565Z,100.00
2023-02-11T05:58:40.473Z,100.00
2023-02-11T06:01:08.338Z,100.00
2023-02-11T06:03:36.496Z,100.00
2023-02-11T06:06:06.542Z,100.00
2023-02-11T06:08:34.428Z,100.00
2023-02-11T06:11:02.272Z,100.00
2023-02-11T06:13:30.213Z,98.00
2023-02-11T06:15:58.608Z,94.51
2023-02-11T06:18:26.688Z,93.38
2023-02-11T06:20:54.697Z,91.15
2023-02-11T06:23:24.230Z,91.07
2023-02-11T06:25:52.592Z,89.63
2023-02-11T06:28:20.846Z,90.23
2023-02-11T06:30:48.893Z,86.75
2023-02-11T06:33:16.989Z,84.57
2023-02-11T06:35:44.892Z,83.89
2023-02-11T06:38:12.824Z,82.61
2023-02-11T06:40:42.084Z,80.57
2023-02-11T06:43:09.929Z,80.23
2023-02-11T06:45:37.954Z,78.97
2023-02-11T06:48:05.965Z,77.70
2023-02-11T06:50:33.846Z,77.94
2023-02-11T06:53:01.930Z,76.42
2023-02-11T06:55:29.962Z,75.73
2023-02-11T06:57:59.228Z,74.45
2023-02-11T07:00:29.106Z,73.99
2023-02-11T07:02:57.256Z,72.17
2023-02-11T07:05:25.462Z,72.98
2023-02-11T07:07:53.339Z,73.31
2023-02-11T07:10:21.585Z,73.74
2023-02-11T07:12:49.478Z,72.98
2023-02-11T07:15:18.996Z,71.58
2023-02-11T07:17:46.916Z,71.63
2023-02-11T07:20:15.736Z,71.30
2023-02-11T07:22:43.582Z,69.99
2023-02-11T07:25:11.570Z,68.97
2023-02-11T07:27:39.533Z,69.20
2023-02-11T07:30:08.223Z,67.48
2023-02-11T07:32:37.526Z,67.20
2023-02-11T07:35:06.518Z,65.55
2023-02-11T07:37:34.956Z,66.53
2023-02-11T07:40:02.933Z,66.36
2023-02-11T07:42:30.863Z,64.45
2023-02-11T07:44:58.902Z,64.95
2023-02-11T07:47:26.889Z,64.34
2023-02-11T07:49:56.743Z,64.79
2023-02-11T07:52:25.373Z,63.99
2023-02-11T07:55:10.691Z,62.23
2023-02-11T07:57:38.835Z,63.70
2023-02-11T08:00:07.819Z,61.59
2023-02-11T08:02:35.856Z,60.71
2023-02-11T08:05:05.420Z,62.72
2023-02-11T08:07:33.254Z,62.43
2023-02-11T08:10:01.189Z,62.68
2023-02-11T08:12:29.346Z,64.02
2023-02-11T08:14:57.492Z,62.87
2023-02-11T08:17:25.785Z,63.15
2023-02-11T08:19:54.000Z,62.49
2023-02-11T08:22:23.235Z,61.46
2023-02-11T08:24:52.476Z,59.86
2023-02-11T08:27:20.399Z,61.33
2023-02-11T08:29:48.260Z,61.70
2023-02-11T08:32:16.192Z,61.54
2023-02-11T08:34:44.101Z,61.75
2023-02-11T08:37:13.245Z,59.55
2023-02-11T08:39:42.596Z,58.01
2023-02-11T08:42:10.486Z,56.93
2023-02-11T08:44:38.539Z,55.93
2023-02-11T08:47:06.782Z,57.50
2023-02-11T08:49:35.279Z,58.67
2023-02-11T08:52:04.224Z,60.31
2023-02-11T08:54:32.663Z,59.17
2023-02-11T08:57:04.574Z,57.49
2023-02-11T08:59:32.560Z,57.47
2023-02-11T09:02:00.518Z,57.62
2023-02-11T09:04:28.488Z,57.14
2023-02-11T09:06:56.321Z,56.07
2023-02-11T09:09:24.420Z,54.25
2023-02-11T09:11:57.159Z,54.01
2023-02-11T09:14:26.387Z,54.07
2023-02-11T09:16:54.514Z,53.47
2023-02-11T09:19:23.155Z,54.51
2023-02-11T09:21:51.158Z,55.10
2023-02-11T09:24:19.583Z,55.95
2023-02-11T09:26:47.596Z,54.72
2023-02-11T09:29:15.708Z,55.96
2023-02-11T09:31:45.188Z,55.73
2023-02-11T09:34:13.627Z,54.69
2023-02-11T09:36:41.966Z,53.97
2023-02-11T09:39:14.033Z,53.20
2023-02-11T09:42:09.282Z,52.45
2023-02-11T09:44:38.915Z,52.75
2023-02-11T09:47:22.282Z,51.51
2023-02-11T09:49:53.765Z,50.03
2023-02-11T09:52:31.054Z,49.39
2023-02-11T09:55:01.018Z,50.17
2023-02-11T09:57:33.689Z,49.96
2023-02-11T10:00:02.780Z,50.32
2023-02-11T10:02:45.018Z,49.53
2023-02-11T10:05:29.823Z,48.83
2023-02-11T10:08:04.863Z,48.87
2023-02-11T10:10:46.494Z,48.88
2023-02-11T10:13:32.039Z,48.21
2023-02-11T10:16:09.685Z,47.22
2023-02-11T10:18:52.193Z,47.27
2023-02-11T10:21:29.842Z,46.45
2023-02-11T10:24:02.935Z,48.26
2023-02-11T10:26:34.379Z,47.76
2023-02-11T10:29:13.627Z,46.90
2023-02-11T10:31:45.666Z,46.74
2023-02-11T10:34:16.395Z,46.59
2023-02-11T10:36:46.034Z,45.15
2023-02-11T10:39:16.777Z,45.16
2023-02-11T10:41:48.478Z,45.40
2023-02-11T10:44:24.704Z,44.59
2023-02-11T10:46:53.250Z,41.48
2023-02-11T10:49:40.441Z,43.23
2023-02-11T10:52:18.959Z,42.88
2023-02-11T10:55:03.248Z,42.30
2023-02-11T10:57:36.039Z,42.37
2023-02-11T11:00:21.513Z,41.98
2023-02-11T11:02:56.873Z,42.41
2023-02-11T11:05:32.594Z,41.75
2023-02-11T11:08:02.890Z,41.75
2023-02-11T11:10:43.197Z,42.16
2023-02-11T11:13:29.183Z,42.31
2023-02-11T11:16:25.545Z,41.51
2023-02-11T11:18:55.231Z,41.24
2023-02-11T11:21:26.572Z,41.26
2023-02-11T11:23:57.458Z,41.36
2023-02-11T11:26:28.463Z,40.48
2023-02-11T11:29:00.104Z,40.44
2023-02-11T11:31:31.543Z,40.90
2023-02-11T11:34:01.692Z,40.13
2023-02-11T11:36:39.186Z,38.73
2023-02-11T11:39:21.872Z,38.66
2023-02-11T11:41:55.633Z,39.00
2023-02-11T11:44:32.987Z,39.53
2023-02-11T11:47:24.167Z,38.31
2023-02-11T11:50:07.521Z,38.28
2023-02-11T11:52:43.727Z,40.53
2023-02-11T11:55:19.469Z,40.30
2023-02-11T11:57:47.939Z,41.18
2023-02-11T12:00:19.351Z,40.55
2023-02-11T12:03:11.839Z,38.56
2023-02-11T12:05:49.592Z,38.16
2023-02-11T12:08:29.908Z,39.00
2023-02-11T12:11:10.686Z,39.30
2023-02-11T12:13:55.966Z,39.36
2023-02-11T12:16:35.041Z,38.43
2023-02-11T12:19:36.152Z,37.87
2023-02-11T12:22:11.421Z,37.07
2023-02-11T12:24:54.498Z,37.57
2023-02-11T12:27:37.387Z,36.79
2023-02-11T12:30:20.471Z,36.33
2023-02-11T12:32:55.216Z,37.43
2023-02-11T12:35:30.378Z,37.43
2023-02-11T12:38:15.970Z,36.81
2023-02-11T12:40:51.623Z,37.17
2023-02-11T12:43:24.900Z,36.54
2023-02-11T12:46:21.012Z,36.29
2023-02-11T12:49:21.202Z,36.33
2023-02-11T12:52:05.848Z,36.44
2023-02-11T12:54:41.264Z,37.83
2023-02-11T12:57:19.588Z,37.08
2023-02-11T12:59:56.608Z,37.18
2023-02-11T13:02:34.155Z,37.83
2023-02-11T13:05:07.001Z,38.05
2023-02-11T13:07:40.238Z,38.45
2023-02-11T13:10:23.644Z,38.55
2023-02-11T13:13:12.962Z,38.54
2023-02-11T13:15:43.915Z,38.88
2023-02-11T13:18:25.945Z,38.04
2023-02-11T13:21:00.876Z,38.44
2023-02-11T13:23:36.136Z,38.05
2023-02-11T13:26:11.609Z,37.84
2023-02-11T13:28:50.254Z,38.21
2023-02-11T13:31:20.414Z,37.20
2023-02-11T13:33:49.922Z,37.72
2023-02-11T13:36:26.457Z,37.62
2023-02-11T13:39:01.290Z,36.60
2023-02-11T13:41:33.057Z,37.90
2023-02-11T13:44:06.488Z,37.07
2023-02-11T13:46:54.002Z,36.53
2023-02-11T13:49:25.800Z,36.60
2023-02-11T13:51:54.888Z,37.25
2023-02-11T13:54:35.087Z,37.36
2023-02-11T13:57:37.618Z,38.36
2023-02-11T14:00:36.585Z,38.23
2023-02-11T14:03:57.327Z,37.74
2023-02-11T14:06:47.247Z,37.60
2023-02-11T14:09:41.681Z,38.33
2023-02-11T14:12:35.407Z,38.22
2023-02-11T14:15:37.240Z,37.91
2023-02-11T14:18:39.616Z,37.29
2023-02-11T14:21:14.940Z,37.24
2023-02-11T14:23:43.134Z,37.43
2023-02-11T14:26:35.075Z,37.93
2023-02-11T14:29:14.133Z,38.71
2023-02-11T14:31:47.687Z,38.88
2023-02-11T14:34:44.918Z,39.35
2023-02-11T14:37:26.983Z,40.23
2023-02-11T14:40:06.311Z,40.31
2023-02-11T14:42:34.496Z,40.26
2023-02-11T14:45:07.388Z,40.68
2023-02-11T14:47:42.179Z,41.41
2023-02-11T14:50:21.062Z,41.33
2023-02-11T14:52:51.151Z,41.52
2023-02-11T14:55:30.470Z,42.25
2023-02-11T14:58:19.476Z,41.97
2023-02-11T15:00:55.852Z,41.95
2023-02-11T15:03:36.833Z,41.76
2023-02-11T15:06:20.497Z,41.92
2023-02-11T15:08:51.666Z,41.55
2023-02-11T15:11:22.258Z,42.71
2023-02-11T15:13:55.580Z,42.39
2023-02-11T15:16:26.999Z,42.80
2023-02-11T15:18:58.615Z,43.60
2023-02-11T15:21:31.492Z,43.65
2023-02-11T15:24:02.080Z,42.74
2023-02-11T15:26:30.913Z,43.48
2023-02-11T15:28:58.785Z,42.49
2023-02-11T15:31:28.901Z,42.50
2023-02-11T15:33:56.888Z,43.45
2023-02-11T15:36:33.203Z,44.51
2023-02-11T15:39:21.488Z,43.72
2023-02-11T15:41:49.357Z,43.88
2023-02-11T15:44:31.723Z,44.35
2023-02-11T15:47:00.184Z,45.02
2023-02-11T15:49:28.611Z,44.83
2023-02-11T15:51:58.866Z,44.13
2023-02-11T15:54:29.522Z,45.22
2023-02-11T15:57:05.481Z,44.82
2023-02-11T15:59:39.859Z,46.06
2023-02-11T16:02:15.124Z,46.23
2023-02-11T16:04:52.268Z,45.71
2023-02-11T16:07:41.438Z,45.61
2023-02-11T16:10:24.848Z,46.69
2023-02-11T16:13:03.882Z,47.05
2023-02-11T16:15:49.481Z,46.69
2023-02-11T16:18:39.652Z,47.14
2023-02-11T16:21:16.781Z,47.34
2023-02-11T16:23:52.444Z,47.59
2023-02-11T16:26:28.675Z,48.73
2023-02-11T16:29:05.670Z,48.19
2023-02-11T16:31:35.116Z,49.77
2023-02-11T16:34:03.032Z,49.84
2023-02-11T16:36:31.355Z,49.40
2023-02-11T16:39:00.708Z,50.10
2023-02-11T16:41:28.744Z,50.36
2023-02-11T16:43:58.866Z,50.78
2023-02-11T16:46:27.802Z,50.81
2023-02-11T16:48:57.846Z,51.16
2023-02-11T16:51:26.370Z,52.19
2023-02-11T16:53:54.343Z,51.49
2023-02-11T16:56:23.600Z,51.47
2023-02-11T16:58:51.480Z,52.60
2023-02-11T17:01:19.494Z,51.20
2023-02-11T17:03:47.532Z,52.00
2023-02-11T17:06:15.748Z,51.85
2023-02-11T17:08:44.477Z,51.99
2023-02-11T17:11:16.724Z,52.08
2023-02-11T17:13:46.014Z,51.58
2023-02-11T17:16:19.253Z,52.35
2023-02-11T17:18:47.864Z,52.42
2023-02-11T17:21:15.931Z,51.91
2023-02-11T17:23:45.917Z,53.21
2023-02-11T17:26:14.019Z,52.51
2023-02-11T17:28:41.967Z,52.67
2023-02-11T17:31:11.611Z,53.38
2023-02-11T17:33:39.570Z,54.07
2023-02-11T17:36:08.746Z,53.47
2023-02-11T17:38:37.692Z,54.40
2023-02-11T17:41:07.392Z,54.43
2023-02-11T17:43:35.769Z,54.54
2023-02-11T17:46:07.691Z,54.38
2023-02-11T17:48:38.312Z,54.97
2023-02-11T17:51:08.836Z,55.54
2023-02-11T17:53:37.310Z,56.11
2023-02-11T17:56:07.311Z,55.56
2023-02-11T17:58:35.175Z,56.14
2023-02-11T18:01:03.658Z,56.06
2023-02-11T18:03:31.839Z,56.04
2023-02-11T18:06:02.949Z,56.12
2023-02-11T18:08:31.271Z,56.13
2023-02-11T18:10:59.533Z,55.49
2023-02-11T18:13:27.688Z,55.40
2023-02-11T18:15:55.872Z,55.88
2023-02-11T18:18:24.019Z,55.27
2023-02-11T18:20:57.825Z,55.39
2023-02-11T18:23:27.502Z,55.30
2023-02-11T18:25:55.441Z,54.96
2023-02-11T18:28:23.447Z,55.30
2023-02-11T18:30:58.293Z,55.57
2023-02-11T18:33:26.466Z,55.09
2023-02-11T18:35:54.867Z,55.54
2023-02-11T18:38:23.244Z,55.17
2023-02-11T18:40:53.345Z,55.29
2023-02-11T18:43:21.603Z,55.86
2023-02-11T18:45:51.472Z,55.16
2023-02-11T18:48:20.138Z,55.14
2023-02-11T18:50:48.142Z,54.57
2023-02-11T18:53:16.764Z,54.39
2023-02-11T18:55:46.093Z,54.30
2023-02-11T18:58:16.506Z,53.94
2023-02-11T19:00:46.910Z,54.26
2023-02-11T19:03:15.019Z,54.95
2023-02-11T19:05:43.518Z,54.51
2023-02-11T19:08:11.585Z,54.99
2023-02-11T19:10:42.448Z,54.88
2023-02-11T19:13:10.738Z,54.21
2023-02-11T19:15:43.763Z,54.53
2023-02-11T19:18:12.298Z,54.38
2023-02-11T19:20:40.782Z,54.39
2023-02-11T19:23:10.285Z,53.92
2023-02-11T19:25:38.810Z,54.15
2023-02-11T19:28:07.030Z,54.25
2023-02-11T19:30:37.104Z,54.21
2023-02-11T19:33:09.733Z,54.89
2023-02-11T19:35:38.073Z,54.63
2023-02-11T19:38:06.547Z,55.03
2023-02-11T19:40:34.583Z,54.78
2023-02-11T19:43:02.476Z,55.11
2023-02-11T19:45:30.375Z,55.26
2023-02-11T19:47:59.026Z,55.71
2023-02-11T19:50:28.691Z,55.38
2023-02-11T19:52:56.542Z,54.27
2023-02-11T19:55:25.068Z,54.12
2023-02-11T19:57:52.904Z,53.60
2023-02-11T20:00:21.717Z,52.91
2023-02-11T20:02:49.644Z,51.88
2023-02-11T20:05:17.756Z,52.06
2023-02-11T20:07:47.096Z,51.12
2023-02-11T20:10:14.998Z,51.72
2023-02-11T20:12:42.958Z,51.59
2023-02-11T20:15:11.491Z,52.02
2023-02-11T20:17:39.379Z,51.08
2023-02-11T20:20:08.289Z,51.53
2023-02-11T20:22:36.454Z,50.71
2023-02-11T20:25:06.328Z,50.32
2023-02-11T20:27:34.532Z,51.11
2023-02-11T20:30:02.460Z,51.01
2023-02-11T20:32:32.799Z,50.28
2023-02-11T20:35:00.772Z,50.96
2023-02-11T20:37:29.835Z,51.17
2023-02-11T20:39:58.895Z,50.82
2023-02-11T20:42:28.293Z,51.05
2023-02-11T20:44:56.365Z,50.67
2023-02-11T20:47:24.208Z,50.37
2023-02-11T20:49:52.249Z,50.80
2023-02-11T20:52:20.334Z,50.76
2023-02-11T20:54:48.688Z,51.07
2023-02-11T20:57:16.851Z,50.46
2023-02-11T20:59:46.285Z,50.49
2023-02-11T21:02:14.674Z,50.32
2023-02-11T21:04:42.901Z,50.78
2023-02-11T21:07:12.164Z,50.15
2023-02-11T21:09:41.384Z,51.17
2023-02-11T21:12:09.701Z,50.52
2023-02-11T21:14:38.816Z,50.63
2023-02-11T21:17:11.058Z,50.74
2023-02-11T21:19:39.277Z,50.34
2023-02-11T21:22:07.160Z,50.64
2023-02-11T21:24:35.246Z,51.00
2023-02-11T21:27:04.169Z,50.57
2023-02-11T21:29:32.051Z,51.14
2023-02-11T21:31:59.922Z,51.02
2023-02-11T21:34:29.277Z,50.77
2023-02-11T21:36:57.213Z,51.14
2023-02-11T21:39:25.086Z,51.54
2023-02-11T21:41:53.327Z,51.73
2023-02-11T21:44:21.146Z,51.55
2023-02-11T21:46:49.106Z,52.08
2023-02-11T21:49:17.326Z,52.30
2023-02-11T21:51:46.766Z,53.22
2023-02-11T21:54:14.657Z,54.67
2023-02-11T21:56:42.566Z,55.23
2023-02-11T21:59:13.880Z,55.69
2023-02-11T22:01:41.781Z,56.11
2023-02-11T22:04:10.928Z,56.19
2023-02-11T22:06:39.543Z,56.34
2023-02-11T22:09:10.863Z,55.97
2023-02-11T22:11:38.779Z,56.45
2023-02-11T22:14:07.061Z,56.48
2023-02-11T22:16:35.064Z,56.21
2023-02-11T22:19:03.446Z,56.20
2023-02-11T22:21:31.703Z,56.55
2023-02-11T22:23:59.809Z,56.13
2023-02-11T22:26:29.402Z,55.96
2023-02-11T22:28:57.736Z,56.47
2023-02-11T22:31:28.437Z,56.58
2023-02-11T22:33:57.736Z,56.34
2023-02-11T22:36:28.340Z,56.54
2023-02-11T22:38:57.532Z,56.71
2023-02-11T22:41:25.656Z,56.94
2023-02-11T22:43:54.866Z,57.02
2023-02-11T22:46:23.110Z,57.39
2023-02-11T22:48:51.595Z,57.51
2023-02-11T22:51:22.438Z,57.43
2023-02-11T22:53:53.877Z,57.45
2023-02-11T22:56:22.225Z,57.36
2023-02-11T22:58:50.796Z,57.25
2023-02-11T23:01:21.232Z,56.92
2023-02-11T23:03:49.392Z,56.75
2023-02-11T23:06:18.054Z,56.73
2023-02-11T23:08:47.127Z,56.40
2023-02-11T23:11:17.341Z,55.29
2023-02-11T23:13:46.725Z,55.02
2023-02-11T23:16:16.569Z,54.83
2023-02-11T23:18:47.169Z,54.74
2023-02-11T23:21:17.504Z,54.67
2023-02-11T23:23:45.977Z,54.88
2023-02-11T23:26:16.133Z,54.95
2023-02-11T23:28:45.970Z,54.97
2023-02-11T23:31:16.057Z,55.64
2023-02-11T23:33:46.528Z,55.77
2023-02-11T23:36:14.872Z,56.07
2023-02-11T23:38:43.518Z,57.03
2023-02-11T23:41:13.371Z,56.86
2023-02-11T23:43:41.747Z,57.52
2023-02-11T23:46:11.283Z,57.94
2023-02-11T23:48:40.560Z,58.18
2023-02-11T23:51:10.673Z,58.05
2023-02-11T23:53:39.421Z,58.41
2023-02-11T23:56:09.412Z,57.92
2023-02-11T23:58:37.632Z,56.79
